Ruth, Nevada
Current Conditions -  °F | °C
As of 6:53 PM on Sunday 21 Dec 2014 (Local Time) from KELY Reporting Station
Light Rain Light Rain  
Wind Chill: 49°   Ceiling: 3400
Heat Index: 49°   Visibility: 10mi
Dew Point: 37°   Wind: 0mph
Humidity: 64%   Direction: NA
Pressure: 30.16"   Gusts: NA
Location:  39.28°N, 114.99°W
Report Text: KELY 220253Z AUTO 00000KT 10SM -RA OVC034 09/03 A3016 RMK AO2 RAB51 SLP180 P0000 60000 T00940028 53012
Loading
Personal Weather Stations






























Interactive Weather Map New forecast layout! Learn more

10-Day Weather Forecast

Advertisements
Track Severe Weather on mobile